Roedersville, Pennsylvania
Current Conditions -  °F | °C
As of 2:58 AM on Friday 31 Oct 2014 (Local Time) from KMUI Reporting Station
Overcast Overcast  
Wind Chill: 44°   Ceiling: 5000
Heat Index: 44°   Visibility: 10mi
Dew Point: 39°   Wind: 2mph
Humidity: 81%   Direction: 120°ESE
Pressure: 30.02"   Gusts: NA
Location:  40.5592°N, 76.3347°W
Report Text: KMUI 310658Z AUTO 12002KT 10SM OVC050 07/04 A3002 RMK AO2 SLP170 T00690039
Loading
Personal Weather Stations






























Interactive Weather Map
Tropical Storm Tracking
New forecast layout! Learn more

10-Day Weather Forecast

Advertisements
Track Severe Weather on mobile